Saturday, December 15, 2018, 2:05 PM EST
Back to Local

KLOM, Philadelphia, Wings Field Airport

Location: Blue Bell, PA, United States Lat: 40.138
Local Time: 2:05 PM EST (19:05 GMT) Lon: -75.265
Time Zone: US/Eastern Elev: 301 ft

Show me the last for .
Show Decoded

2018-12-15 13:35 METAR KLOM 151835Z AUTO 00000KT 5SM BKN003 OVC017 09/09 A3009 RMK AO1 =
2018-12-15 13:15 METAR KLOM 151815Z AUTO 00000KT 4SM OVC003 09/09 A3009 RMK AO1 =
2018-12-15 12:55 METAR KLOM 151755Z AUTO 04003KT 4SM OVC003 09/09 A3010 RMK AO1 =
2018-12-15 12:35 METAR KLOM 151735Z AUTO 05003KT 2SM OVC003 09/09 A3010 RMK AO1 =
2018-12-15 12:15 METAR KLOM 151715Z AUTO 04003KT 1 3/4SM OVC003 09/09 A3010 RMK AO1 =
2018-12-15 11:55 METAR KLOM 151655Z AUTO 05004KT 1 3/4SM OVC003 09/09 A3011 RMK AO1 =
2018-12-15 11:35 METAR KLOM 151635Z AUTO 05004KT 1 1/2SM OVC003 09/09 A3012 RMK AO1 =
2018-12-15 11:15 METAR KLOM 151615Z AUTO 00000KT 2SM OVC003 08/08 A3012 RMK AO1 =
2018-12-15 10:55 METAR KLOM 151555Z AUTO 05004KT 2SM OVC003 08/08 A3012 RMK AO1 =
2018-12-15 10:35 METAR KLOM 151535Z AUTO 05005KT 1 1/4SM OVC003 08/08 A3013 RMK AO1 =
2018-12-15 10:15 METAR KLOM 151515Z AUTO 06005KT 1SM OVC003 08/08 A3014 RMK AO1 =
2018-12-15 09:55 METAR KLOM 151455Z AUTO 03006KT 2SM OVC003 08/08 A3014 RMK AO1 =
2018-12-15 09:35 METAR KLOM 151435Z AUTO 00000KT 2 1/2SM OVC003 08/08 A3014 RMK AO1 =
2018-12-15 09:15 METAR KLOM 151415Z AUTO 08005KT 1 1/2SM OVC002 08/08 A3013 RMK AO1 =
2018-12-15 08:55 METAR KLOM 151355Z AUTO 05005KT 1SM OVC002 08/08 A3014 RMK AO1 =
2018-12-15 08:35 METAR KLOM 151335Z AUTO 05004KT 1SM OVC002 07/07 A3015 RMK AO1 =
2018-12-15 08:15 METAR KLOM 151315Z AUTO 03005KT 3/4SM OVC002 07/07 A3014 RMK AO1 =
2018-12-15 07:55 METAR KLOM 151255Z AUTO 04004KT 1/2SM OVC002 07/07 A3013 RMK AO1 =
2018-12-15 07:35 METAR KLOM 151235Z AUTO 06004KT 1SM OVC002 07/07 A3013 RMK AO1 =
2018-12-15 07:15 METAR KLOM 151215Z AUTO 05004KT 1 1/2SM OVC002 07/07 A3013 RMK AO1 =
2018-12-15 06:55 METAR KLOM 151155Z AUTO 04004KT 1 1/2SM OVC002 07/07 A3014 RMK AO1 =
2018-12-15 06:35 METAR KLOM 151135Z AUTO 01003KT 3/4SM OVC002 07/07 A3014 RMK AO1 =
2018-12-15 06:15 METAR KLOM 151115Z AUTO 00000KT 3/4SM OVC002 07/07 A3014 RMK AO1 =
2018-12-15 05:55 METAR KLOM 151055Z AUTO 00000KT 1/2SM OVC002 07/07 A3015 RMK AO1 =
2018-12-15 05:35 METAR KLOM 151035Z AUTO 00000KT 1/2SM OVC002 07/07 A3016 RMK AO1 =
2018-12-15 05:15 METAR KLOM 151015Z AUTO 00000KT 1/2SM OVC002 07/07 A3017 RMK AO1 =
2018-12-15 04:55 METAR KLOM 150955Z AUTO 07003KT 1/2SM OVC002 07/07 A3016 RMK AO1 =
2018-12-15 04:35 METAR KLOM 150935Z AUTO 00000KT 1/2SM OVC002 07/07 A3018 RMK AO1 =
2018-12-15 04:15 METAR KLOM 150915Z AUTO 00000KT 3/4SM OVC002 07/07 A3019 RMK AO1 =
2018-12-15 03:55 METAR KLOM 150855Z AUTO 00000KT 3/4SM OVC002 07/07 A3019 RMK AO1 =
2018-12-15 03:35 METAR KLOM 150835Z AUTO 00000KT 1SM OVC002 07/07 A3020 RMK AO1 =
2018-12-15 03:15 METAR KLOM 150815Z AUTO 00000KT 2SM OVC002 07/07 A3021 RMK AO1 =
2018-12-15 02:55 METAR KLOM 150755Z AUTO 00000KT 3SM OVC002 07/07 A3022 RMK AO1 =
2018-12-15 02:35 METAR KLOM 150735Z AUTO 00000KT 3SM OVC002 07/07 A3022 RMK AO1 =
2018-12-15 02:15 METAR KLOM 150715Z AUTO 00000KT 2 1/2SM OVC002 07/07 A3022 RMK AO1 =
2018-12-15 01:55 METAR KLOM 150655Z AUTO 00000KT 1 1/4SM OVC002 07/07 A3022 RMK AO1 =
2018-12-15 01:35 METAR KLOM 150635Z AUTO 00000KT 2 1/2SM BKN002 OVC007 07/07 A3022 RMK AO1 =
2018-12-15 01:15 METAR KLOM 150615Z AUTO 00000KT 2SM BKN002 OVC007 07/07 A3022 RMK AO1 =
2018-12-15 00:55 METAR KLOM 150555Z AUTO 00000KT 2 1/2SM OVC002 07/07 A3022 RMK AO1 =
2018-12-15 00:35 METAR KLOM 150535Z AUTO 00000KT 2 1/2SM OVC002 07/07 A3023 RMK AO1 =
2018-12-15 00:15 METAR KLOM 150515Z AUTO 00000KT 1 1/2SM BKN002 OVC009 07/07 A3023 RMK AO1 =
2018-12-14 23:55 METAR KLOM 150455Z AUTO 00000KT 1 1/2SM BKN002 OVC011 07/07 A3024 RMK AO1 =
2018-12-14 23:35 METAR KLOM 150435Z AUTO 00000KT 3/4SM BKN002 OVC011 07/07 A3024 RMK AO1 =
2018-12-14 23:15 METAR KLOM 150415Z AUTO 00000KT 1SM BKN002 OVC023 07/07 A3025 RMK AO1 =
2018-12-14 22:55 METAR KLOM 150355Z AUTO 00000KT 1SM SCT002 BKN028 OVC039 06/06 A3026 RMK AO1 =
2018-12-14 22:35 METAR KLOM 150335Z AUTO 00000KT 1/2SM BKN038 OVC046 06/06 A3027 RMK AO1 =
2018-12-14 22:15 METAR KLOM 150315Z AUTO 00000KT 3/4SM BKN032 OVC049 06/06 A3028 RMK AO1 =
2018-12-14 21:55 METAR KLOM 150255Z AUTO 00000KT 3/4SM BKN032 OVC038 06/06 A3029 RMK AO1 =
2018-12-14 21:35 METAR KLOM 150235Z AUTO 00000KT 1 3/4SM SCT033 OVC046 06/06 A3030 RMK AO1 =
2018-12-14 21:15 METAR KLOM 150215Z AUTO 00000KT 1/2SM SCT028 BKN037 OVC046 06/06 A3030 RMK AO1 =
2018-12-14 20:55 METAR KLOM 150155Z AUTO 00000KT 1SM SCT060 BKN070 06/06 A3031 RMK AO1 =
2018-12-14 20:35 METAR KLOM 150135Z AUTO 00000KT 3/4SM BKN014 BKN055 OVC075 06/06 A3032 RMK AO1 =
2018-12-14 20:15 METAR KLOM 150115Z AUTO 00000KT 1 1/4SM OVC085 06/06 A3032 RMK AO1 =
2018-12-14 19:55 METAR KLOM 150055Z AUTO 00000KT 1SM OVC075 06/06 A3032 RMK AO1 =
2018-12-14 19:35 METAR KLOM 150035Z AUTO 00000KT 3/4SM OVC075 06/06 A3033 RMK AO1 =
2018-12-14 19:15 METAR KLOM 150015Z AUTO 00000KT 3/4SM SCT075 OVC090 06/06 A3034 RMK AO1 =
2018-12-14 18:55 METAR KLOM 142355Z AUTO 00000KT 1 1/2SM SCT042 SCT055 OVC090 06/06 A3034 RMK AO1
                 =
2018-12-14 18:35 METAR KLOM 142335Z AUTO 00000KT 1SM OVC090 06/06 A3034 RMK AO1 =
2018-12-14 18:15 METAR KLOM 142315Z AUTO 00000KT 2 1/2SM SCT015 OVC090 06/06 A3034 RMK AO1 =
2018-12-14 17:55 METAR KLOM 142255Z AUTO 00000KT 4SM SCT015 SCT075 BKN090 06/06 A3034 RMK AO1 =
2018-12-14 17:35 METAR KLOM 142235Z AUTO 00000KT 5SM SCT015 SCT032 BKN075 06/06 A3034 RMK AO1 =
2018-12-14 17:15 METAR KLOM 142215Z AUTO 00000KT 5SM SCT013 SCT070 OVC090 07/07 A3035 RMK AO1 =
2018-12-14 16:55 METAR KLOM 142155Z AUTO 00000KT 7SM SCT090 OVC110 07/07 A3034 RMK AO1 =
2018-12-14 16:35 METAR KLOM 142135Z AUTO 00000KT 7SM SCT070 SCT090 OVC110 07/07 A3035 RMK AO1 =
2018-12-14 16:15 METAR KLOM 142115Z AUTO 00000KT 5SM BKN080 OVC110 07/07 A3034 RMK AO1 =
2018-12-14 15:55 METAR KLOM 142055Z AUTO 00000KT 7SM BKN070 BKN085 BKN120 08/08 A3034 RMK AO1 =
2018-12-14 15:35 METAR KLOM 142035Z AUTO 00000KT 7SM OVC070 09/08 A3034 RMK AO1 =
2018-12-14 15:15 METAR KLOM 142015Z AUTO 00000KT 7SM OVC070 09/08 A3034 RMK AO1 =
2018-12-14 14:55 METAR KLOM 141955Z AUTO 00000KT 7SM OVC070 09/08 A3034 RMK AO1 =
2018-12-14 14:35 METAR KLOM 141935Z AUTO 00000KT 7SM OVC070 09/08 A3034 RMK AO1 =
2018-12-14 14:15 METAR KLOM 141915Z AUTO 00000KT 7SM OVC070 09/07 A3035 RMK AO1 =

Support USWX by starting your Amazon purchase here.